Time;durP1;ratioP1;P1;durP2;ratioP2;P2;SDS_P1;SDS_P2;PMS_P1;PMS_P2;Temp;Humidity;BMP_temperature;BMP_pressure;BME280_temperature;BME280_humidity;BME280_pressure;Samples;Min_cycle;Max_cycle;Signal;HPM_P1;HPM_P2
2021/06/10 00:00:04;;;;;;;6.70;3.55;;;19.80;99.90;;;19.27;72.76;100679.31;5047759;28;20041;-60
2021/06/10 00:02:30;;;;;;;4.82;3.83;;;19.70;99.90;;;19.32;72.52;100675.09;5047797;28;20155;-49
2021/06/10 00:04:56;;;;;;;5.90;4.35;;;19.80;99.90;;;19.31;72.82;100668.16;5050731;28;20171;-60
2021/06/10 00:07:22;;;;;;;6.03;4.13;;;19.80;99.90;;;19.31;72.82;100665.53;5051985;28;20037;-50
2021/06/10 00:09:49;;;;;;;6.25;4.00;;;19.80;99.90;;;19.31;73.20;100667.34;5033973;28;20106;-52
2021/06/10 00:12:18;;;;;;;4.97;3.60;;;19.90;99.90;;;19.40;71.93;100664.31;5052329;28;20079;-57
2021/06/10 00:14:46;;;;;;;10.00;3.92;;;19.90;99.90;;;19.41;71.68;100665.94;5051924;28;20037;-56
2021/06/10 00:17:12;;;;;;;4.50;3.03;;;19.90;99.90;;;19.41;71.63;100665.13;5051790;28;20381;-51
2021/06/10 00:19:38;;;;;;;7.70;3.65;;;19.90;99.90;;;19.34;71.97;100670.41;5051940;28;20025;-58
2021/06/10 00:22:04;;;;;;;8.10;4.00;;;19.90;99.90;;;19.26;72.54;100667.13;5052009;28;20068;-56
2021/06/10 00:24:30;;;;;;;6.25;3.88;;;19.80;99.90;;;19.30;72.52;100668.38;5033904;28;20508;-50
2021/06/10 00:26:56;;;;;;;14.77;3.88;;;19.80;99.90;;;19.29;72.24;100662.25;5052006;28;20060;-51
2021/06/10 00:29:22;;;;;;;5.00;4.20;;;19.80;99.90;;;19.31;72.05;100670.81;5051529;28;20484;-53
2021/06/10 00:31:48;;;;;;;5.25;4.03;;;19.80;99.90;;;19.42;71.46;100672.06;5051435;28;20064;-54
2021/06/10 00:34:15;;;;;;;7.20;3.83;;;19.90;99.90;;;19.44;71.01;100668.19;5051844;28;20123;-53
2021/06/10 00:36:43;;;;;;;5.28;3.25;;;19.90;99.90;;;19.51;70.52;100671.72;5033457;28;20045;-56
2021/06/10 00:39:09;;;;;;;6.70;3.80;;;20.00;99.90;;;19.48;70.90;100672.09;5051533;28;20041;-57
2021/06/10 00:41:37;;;;;;;5.68;3.53;;;20.00;99.90;;;19.38;71.49;100668.97;5051972;28;20431;-55
2021/06/10 00:44:07;;;;;;;4.55;3.42;;;19.90;99.90;;;19.35;71.50;100664.13;5051162;28;20032;-57
2021/06/10 00:46:34;;;;;;;6.57;3.92;;;19.90;99.90;;;19.34;71.48;100666.97;5051177;28;20446;-57
2021/06/10 00:49:01;;;;;;;5.32;3.45;;;19.90;99.90;;;19.28;71.76;100665.09;5051450;28;20468;-60
2021/06/10 00:51:28;;;;;;;5.43;3.42;;;19.80;99.90;;;19.25;71.86;100668.94;5051462;28;20053;-52
2021/06/10 00:53:56;;;;;;;5.78;4.13;;;19.80;99.90;;;19.26;71.92;100667.13;5051469;28;20044;-60
2021/06/10 00:56:22;;;;;;;3.72;3.30;;;19.80;99.90;;;19.32;71.51;100671.63;5033039;28;20033;-56
2021/06/10 00:58:48;;;;;;;5.03;3.40;;;19.80;99.90;;;19.37;71.34;100670.03;5050643;28;20036;-52
2021/06/10 01:01:15;;;;;;;4.63;3.58;;;19.80;99.90;;;19.38;70.72;100666.34;5051112;28;20275;-54
2021/06/10 01:03:41;;;;;;;5.43;3.75;;;19.90;99.90;;;19.43;70.61;100668.41;5032960;28;20041;-56
2021/06/10 01:06:35;;;;;;;4.30;3.08;;;19.90;99.90;;;19.63;68.69;100658.75;5050805;28;20048;-54
2021/06/10 01:09:18;;;;;;;3.38;3.10;;;20.00;99.90;;;19.66;68.73;100663.66;5035069;28;20088;-53
2021/06/10 01:12:14;;;;;;;8.52;3.92;;;20.10;99.90;;;19.75;67.38;100661.63;5032810;28;20114;-55
2021/06/10 01:14:44;;;;;;;3.67;2.88;;;20.20;99.90;;;19.82;67.25;100662.47;5050797;28;20455;-53
2021/06/10 01:17:11;;;;;;;4.40;3.10;;;20.30;99.90;;;19.87;67.14;100660.84;5051040;28;20033;-56
2021/06/10 01:19:40;;;;;;;5.03;3.17;;;20.30;99.90;;;19.91;66.70;100658.59;5050442;28;20088;-57
2021/06/10 01:22:24;;;;;;;4.88;2.80;;;20.30;99.90;;;19.87;67.03;100665.31;5050919;28;20314;-55
2021/06/10 01:25:29;;;;;;;4.10;3.58;;;20.40;99.90;;;19.87;66.97;100658.19;5050762;28;20039;-57
2021/06/10 01:28:19;;;;;;;6.55;4.13;;;20.30;99.90;;;19.83;67.54;100661.47;5050496;28;20044;-59
2021/06/10 01:30:54;;;;;;;6.32;3.20;;;20.30;99.90;;;19.92;65.90;100662.88;5035240;28;20075;-61
2021/06/10 01:33:29;;;;;;;3.58;3.05;;;20.40;99.90;;;19.81;67.50;100666.13;5033618;28;20033;-53
2021/06/10 01:36:10;;;;;;;5.15;3.15;;;20.40;99.90;;;19.65;68.61;100664.66;5032753;28;20091;-49
2021/06/10 01:38:43;;;;;;;5.30;3.40;;;20.20;99.90;;;19.50;69.10;100656.84;5050378;28;20033;-57
2021/06/10 01:41:11;;;;;;;4.32;3.17;;;20.10;99.90;;;19.39;69.78;100662.69;5032713;28;20033;-56
2021/06/10 01:43:40;;;;;;;4.25;3.20;;;20.00;99.90;;;19.38;70.12;100668.16;5050485;28;20029;-59
2021/06/10 01:46:07;;;;;;;4.20;3.40;;;19.90;99.90;;;19.40;70.76;100679.34;5050184;28;20068;-59
2021/06/10 01:48:34;;;;;;;4.57;4.00;;;19.90;99.90;;;19.31;71.70;100668.16;5050205;28;20025;-60
2021/06/10 01:51:03;;;;;;;4.55;3.72;;;19.90;99.90;;;19.17;73.17;100667.28;5032364;28;20112;-51
2021/06/10 01:53:31;;;;;;;4.85;3.78;;;19.80;99.90;;;19.08;74.30;100663.16;5050028;28;20032;-56
2021/06/10 01:56:00;;;;;;;4.63;4.25;;;19.70;99.90;;;19.01;74.88;100658.84;5049962;28;20043;-55
2021/06/10 01:58:28;;;;;;;6.25;4.65;;;19.60;99.90;;;18.89;75.75;100662.06;5031880;28;20044;-61
2021/06/10 02:00:55;;;;;;;4.88;4.38;;;19.50;99.90;;;18.86;75.81;100662.44;5031877;28;20094;-60
2021/06/10 02:03:22;;;;;;;4.47;4.00;;;19.50;99.90;;;18.83;75.52;100659.38;5049716;28;20033;-58
2021/06/10 02:05:50;;;;;;;4.53;4.20;;;19.40;99.90;;;18.76;76.01;100669.06;5049986;28;20037;-59
2021/06/10 02:08:19;;;;;;;7.35;4.28;;;19.30;99.90;;;18.70;76.62;100675.94;5032267;28;20036;-55
2021/06/10 02:10:54;;;;;;;7.18;4.85;;;19.30;99.90;;;18.74;76.55;100671.09;5049903;28;20044;-54
2021/06/10 02:13:26;;;;;;;6.30;4.70;;;19.30;99.90;;;18.72;76.73;100667.81;5050247;28;20041;-56
2021/06/10 02:15:55;;;;;;;7.28;5.18;;;19.30;99.90;;;18.66;77.49;100666.78;5049539;28;20101;-52
2021/06/10 02:18:21;;;;;;;6.35;5.75;;;19.20;99.90;;;18.61;78.16;100669.16;5049832;28;20032;-60
2021/06/10 02:20:48;;;;;;;6.55;5.95;;;19.20;99.90;;;18.63;77.98;100675.06;5049679;28;20033;-60
2021/06/10 02:23:14;;;;;;;6.13;5.53;;;19.20;99.90;;;18.63;77.23;100677.72;5049618;28;20383;-59
2021/06/10 02:25:40;;;;;;;7.55;5.32;;;19.20;99.90;;;18.62;76.69;100673.44;5049469;28;20029;-57
2021/06/10 02:28:07;;;;;;;6.07;5.47;;;19.20;99.90;;;18.60;77.31;100674.59;5048906;28;20463;-60
2021/06/10 02:30:34;;;;;;;5.30;4.80;;;19.20;99.90;;;18.50;77.83;100686.28;5049226;28;20119;-52
2021/06/10 02:33:00;;;;;;;5.97;5.20;;;19.10;99.90;;;18.44;78.18;100687.06;5049302;28;20021;-51
2021/06/10 02:35:26;;;;;;;6.13;5.18;;;19.00;99.90;;;18.43;78.15;100676.72;5031269;28;20078;-49
2021/06/10 02:37:58;;;;;;;6.75;4.78;;;19.00;99.90;;;18.45;78.38;100679.97;5049267;28;20055;-54
2021/06/10 02:43:05;;;;;;;10.68;6.00;;;19.00;99.90;;;18.40;79.17;100677.09;5012309;22;20478;-53
2021/06/10 02:45:33;;;;;;;6.68;5.40;;;18.90;99.90;;;18.45;78.79;100669.41;5109557;28;20027;-56
2021/06/10 02:48:01;;;;;;;7.28;5.15;;;18.90;99.90;;;18.43;79.07;100672.22;5109860;28;20144;-52
2021/06/10 02:50:29;;;;;;;7.68;5.25;;;19.00;99.90;;;18.39;78.85;100659.66;5091637;28;20484;-57
2021/06/10 02:52:57;;;;;;;9.32;5.63;;;18.90;99.90;;;18.47;78.49;100657.66;5109610;28;20557;-55
2021/06/10 02:55:26;;;;;;;6.28;5.28;;;19.00;99.90;;;18.49;78.49;100671.47;5109956;28;20054;-53
2021/06/10 02:57:55;;;;;;;11.30;5.90;;;19.00;99.90;;;18.45;79.25;100667.59;5109592;28;20483;-56
2021/06/10 03:00:26;;;;;;;10.40;6.00;;;19.00;99.90;;;18.42;79.67;100667.19;5109752;28;20031;-58
2021/06/10 03:02:53;;;;;;;11.05;5.95;;;19.00;99.90;;;18.45;79.47;100677.31;5109503;28;20390;-55
2021/06/10 03:05:25;;;;;;;6.38;5.78;;;19.00;99.90;;;18.45;78.89;100666.78;5109177;28;20161;-53
2021/06/10 03:07:53;;;;;;;5.78;5.18;;;19.00;99.90;;;18.53;78.02;100661.34;5109757;28;20066;-49
2021/06/10 03:10:32;;;;;;;6.53;5.95;;;19.00;99.90;;;18.55;78.09;100667.25;5091515;28;20046;-57
2021/06/10 03:13:01;;;;;;;6.35;5.75;;;19.10;99.90;;;18.54;78.28;100668.25;5109314;28;20069;-55
2021/06/10 03:15:29;;;;;;;6.60;5.63;;;19.10;99.90;;;18.50;78.74;100672.28;5109007;28;20389;-59
2021/06/10 03:17:56;;;;;;;6.85;5.55;;;19.10;99.90;;;18.46;78.80;100665.75;5090710;28;20034;-53
2021/06/10 03:20:22;;;;;;;6.97;6.25;;;19.00;99.90;;;18.41;79.33;100670.81;5090808;28;20031;-53
2021/06/10 03:22:49;;;;;;;8.18;6.78;;;19.00;99.90;;;18.35;79.88;100668.94;5090550;28;20146;-57
2021/06/10 03:25:15;;;;;;;6.25;5.78;;;18.90;99.90;;;18.37;79.89;100667.75;5107453;28;20035;-55
2021/06/10 03:27:41;;;;;;;5.93;5.47;;;18.90;99.90;;;18.34;79.80;100678.69;5108993;28;20039;-57
2021/06/10 03:30:09;;;;;;;6.78;6.10;;;18.90;99.90;;;18.34;79.90;100672.59;5090338;28;20057;-55
2021/06/10 03:32:37;;;;;;;6.03;5.13;;;18.90;99.90;;;18.28;79.89;100668.88;5090416;28;20024;-55
2021/06/10 03:35:05;;;;;;;5.28;4.88;;;18.80;99.90;;;18.24;79.76;100672.91;5090752;28;20066;-53
2021/06/10 03:37:32;;;;;;;4.80;4.13;;;18.80;99.90;;;18.23;79.81;100676.53;5108519;28;20035;-54
2021/06/10 03:40:01;;;;;;;6.13;4.45;;;18.80;99.90;;;18.23;79.79;100676.53;5107978;28;20073;-56
2021/06/10 03:42:29;;;;;;;6.85;5.50;;;18.80;99.90;;;18.24;79.79;100676.34;5108577;28;20397;-49
2021/06/10 03:44:55;;;;;;;4.35;4.05;;;18.80;99.90;;;18.24;79.78;100675.53;5124026;27;20045;-49
2021/06/10 03:47:22;;;;;;;6.78;4.15;;;18.80;99.90;;;18.27;79.16;100671.72;5108857;28;20039;-57
2021/06/10 03:49:48;;;;;;;4.97;3.53;;;18.80;99.90;;;18.24;79.41;100678.16;5090454;28;20362;-59
2021/06/10 03:52:14;;;;;;;4.40;4.00;;;18.80;99.90;;;18.15;79.30;100674.84;5108709;28;20031;-54
2021/06/10 03:54:40;;;;;;;4.03;3.35;;;18.80;99.90;;;18.24;79.03;100684.25;5108501;28;20097;-56
2021/06/10 03:57:10;;;;;;;7.78;4.30;;;18.80;99.90;;;18.23;78.91;100674.72;5108557;28;20039;-58
2021/06/10 03:59:36;;;;;;;7.38;3.92;;;18.80;99.90;;;18.27;79.03;100679.63;5108432;28;20047;-54
2021/06/10 04:02:02;;;;;;;8.65;4.60;;;18.80;99.90;;;18.31;79.15;100686.16;5108861;28;20032;-52
2021/06/10 04:04:29;;;;;;;8.52;4.53;;;18.80;99.90;;;18.41;78.71;100686.66;5108499;28;20031;-56
2021/06/10 04:06:57;;;;;;;4.57;2.95;;;18.90;99.90;;;18.45;78.01;100685.22;5124206;28;20039;-55
2021/06/10 04:09:23;;;;;;;3.80;2.97;;;19.00;99.90;;;18.51;77.29;100685.28;5108978;28;20039;-54
2021/06/10 04:11:49;;;;;;;4.65;3.65;;;19.00;99.90;;;18.63;77.00;100696.19;5108427;28;20088;-55
2021/06/10 04:14:15;;;;;;;7.68;3.45;;;19.10;99.90;;;18.68;77.04;100701.69;5108678;28;20475;-60
2021/06/10 04:16:41;;;;;;;4.43;3.78;;;19.20;99.90;;;18.65;77.35;100699.44;5108830;28;20027;-57
2021/06/10 04:19:09;;;;;;;8.70;4.22;;;19.10;99.90;;;18.67;77.11;100709.81;5108622;28;20032;-53
2021/06/10 04:21:35;;;;;;;4.22;3.85;;;19.10;99.90;;;18.70;77.00;100707.59;5124290;28;20039;-55
2021/06/10 04:24:02;;;;;;;7.22;4.20;;;19.20;99.90;;;18.66;77.47;100711.63;5108340;28;20024;-59
2021/06/10 04:26:28;;;;;;;3.92;3.63;;;19.20;99.90;;;18.70;77.50;100719.97;5090019;28;20034;-58
2021/06/10 04:28:54;;;;;;;5.57;3.65;;;19.20;99.90;;;18.74;77.67;100726.50;5108605;28;20038;-56
2021/06/10 04:31:21;;;;;;;5.63;3.60;;;19.30;99.90;;;18.71;77.08;100716.34;5108585;28;20061;-55
2021/06/10 04:33:47;;;;;;;5.35;3.75;;;19.30;99.90;;;18.76;76.83;100716.59;5107973;28;20031;-57
2021/06/10 04:36:14;;;;;;;7.15;3.58;;;19.30;99.90;;;18.80;76.55;100720.47;5108031;28;20043;-56
2021/06/10 04:38:41;;;;;;;6.80;3.60;;;19.30;99.90;;;18.85;76.48;100718.91;5108588;28;20063;-57
2021/06/10 04:41:08;;;;;;;4.45;2.80;;;19.30;99.90;;;18.90;75.27;100721.75;5108231;28;20085;-52
2021/06/10 04:43:35;;;;;;;4.32;3.92;;;19.40;99.90;;;18.99;75.20;100718.97;5107872;28;20044;-58
2021/06/10 04:46:02;;;;;;;4.43;3.70;;;19.50;99.90;;;18.93;76.45;100725.81;5123694;28;20063;-58
2021/06/10 04:48:28;;;;;;;6.63;3.97;;;19.50;99.90;;;18.93;77.49;100727.66;5123659;28;20168;-55
2021/06/10 04:50:55;;;;;;;4.55;4.10;;;19.50;99.90;;;18.87;77.95;100726.63;5126281;27;20043;-55
2021/06/10 04:53:22;;;;;;;4.45;4.05;;;19.40;99.90;;;18.82;78.44;100735.13;5111873;28;20063;-57
2021/06/10 04:55:48;;;;;;;6.25;4.30;;;19.40;99.90;;;18.80;78.52;100731.84;5127290;27;20486;-55
2021/06/10 04:58:14;;;;;;;5.05;4.53;;;19.40;99.90;;;18.82;78.45;100734.31;5112110;28;20160;-56
2021/06/10 05:00:40;;;;;;;7.05;4.07;;;19.30;99.90;;;18.84;78.33;100733.09;5112150;28;20153;-52
2021/06/10 05:03:07;;;;;;;8.52;3.72;;;19.40;99.90;;;18.89;77.62;100725.41;5111933;28;20055;-57
2021/06/10 05:05:34;;;;;;;6.22;4.22;;;19.40;99.90;;;18.97;77.85;100739.47;5112190;28;20038;-59
2021/06/10 05:08:00;;;;;;;4.28;3.88;;;19.50;99.90;;;19.03;77.84;100730.78;5111622;28;20031;-58
2021/06/10 05:10:26;;;;;;;4.25;3.17;;;19.50;99.90;;;19.07;77.71;100738.13;5111821;28;20469;-59
2021/06/10 05:12:53;;;;;;;6.97;3.53;;;19.60;99.90;;;19.04;77.54;100737.69;5111871;28;20028;-60
2021/06/10 05:15:19;;;;;;;4.82;3.38;;;19.60;99.90;;;19.15;77.22;100739.78;5093374;28;20100;-62
2021/06/10 05:17:45;;;;;;;4.80;3.45;;;19.70;99.90;;;19.21;76.12;100741.66;5093379;28;20035;-53
2021/06/10 05:20:12;;;;;;;6.15;3.33;;;19.70;99.90;;;19.25;75.64;100734.16;5111539;28;20042;-56
2021/06/10 05:22:38;;;;;;;4.80;3.60;;;19.80;99.90;;;19.31;74.77;100730.75;5111395;28;20074;-53
2021/06/10 05:25:06;;;;;;;1.65;1.55;;;19.80;99.90;;;19.63;70.98;100737.22;5111388;28;20122;-59
2021/06/10 05:27:34;;;;;;;7.50;2.90;;;20.00;99.90;;;19.69;71.77;100731.97;5111449;28;20024;-59
2021/06/10 05:30:02;;;;;;;7.00;3.75;;;20.20;99.90;;;19.55;73.04;100736.38;5126971;27;20036;-54
2021/06/10 05:32:28;;;;;;;4.50;3.33;;;20.20;99.90;;;19.58;73.30;100734.34;5111459;28;20043;-56
2021/06/10 05:34:54;;;;;;;8.02;3.88;;;20.10;99.90;;;19.66;73.35;100735.00;5111246;28;20035;-55
2021/06/10 05:37:20;;;;;;;5.45;2.95;;;20.20;99.90;;;19.69;73.24;100742.56;5111083;28;20487;-55
2021/06/10 05:39:46;;;;;;;6.50;3.85;;;20.20;99.90;;;19.84;73.68;100742.41;5111142;28;20042;-53
2021/06/10 05:42:14;;;;;;;4.32;3.67;;;20.30;99.90;;;19.89;73.37;100739.97;5092409;28;20046;-54
2021/06/10 05:44:40;;;;;;;7.65;3.90;;;20.40;99.90;;;19.97;72.88;100738.97;5126663;27;20047;-54
2021/06/10 05:47:06;;;;;;;7.20;3.13;;;20.50;99.90;;;20.10;72.11;100739.81;5110960;28;20055;-53
2021/06/10 05:49:31;;;;;;;5.43;3.10;;;20.70;99.90;;;20.21;71.46;100743.72;5110882;28;20074;-54
2021/06/10 05:51:57;;;;;;;7.80;1.90;;;20.80;99.90;;;20.57;68.50;100738.09;5110784;28;20063;-53
2021/06/10 05:54:23;;;;;;;3.75;2.42;;;21.00;99.90;;;20.86;67.07;100740.31;5111174;28;20343;-61
2021/06/10 05:56:51;;;;;;;9.18;3.58;;;21.30;99.90;;;21.02;67.92;100751.50;5110974;28;20126;-57
2021/06/10 05:59:17;;;;;;;6.53;2.42;;;21.60;99.90;;;21.18;66.85;100753.72;5092731;28;20386;-55
2021/06/10 06:01:43;;;;;;;2.92;1.75;;;21.70;99.90;;;21.49;63.79;100743.25;5109897;28;20045;-54
2021/06/10 06:04:09;;;;;;;5.70;2.78;;;22.00;99.90;;;22.82;60.71;100745.97;5092410;28;20111;-52
2021/06/10 06:06:35;;;;;;;5.57;3.05;;;23.20;99.90;;;23.48;59.96;100753.28;5110679;28;20027;-58
2021/06/10 06:09:06;;;;;;;4.55;2.40;;;24.50;99.60;;;23.35;58.85;100759.53;5110855;28;20367;-59
2021/06/10 06:11:32;;;;;;;3.35;2.05;;;24.50;96.80;;;23.09;59.77;100752.69;5125977;27;20050;-57
2021/06/10 06:14:08;;;;;;;4.55;2.92;;;24.10;97.60;;;23.02;60.55;100761.75;5110512;28;20027;-61
2021/06/10 06:16:41;;;;;;;3.38;1.85;;;23.90;98.80;;;22.99;59.74;100760.31;5110074;28;20028;-55
2021/06/10 06:19:11;;;;;;;2.53;2.17;;;23.80;98.00;;;23.02;60.21;100769.72;5110138;28;20036;-61
2021/06/10 06:21:37;;;;;;;1.92;1.83;;;23.70;98.30;;;23.09;58.81;100763.31;5126150;27;20047;-61
2021/06/10 06:24:04;;;;;;;8.63;1.75;;;23.80;97.20;;;23.18;58.36;100769.13;5110635;28;20114;-56
2021/06/10 06:26:31;;;;;;;2.70;1.58;;;23.90;97.10;;;23.07;59.89;100769.88;5091796;28;20384;-54
2021/06/10 06:29:02;;;;;;;3.78;2.25;;;23.90;97.50;;;23.02;61.08;100762.56;5091561;28;20397;-61
2021/06/10 06:31:29;;;;;;;3.80;2.25;;;23.80;98.50;;;22.87;61.95;100769.22;5125277;27;20122;-60
2021/06/10 06:33:55;;;;;;;2.85;1.98;;;23.70;99.10;;;22.80;62.28;100774.59;5110119;28;20478;-52
2021/06/10 06:36:21;;;;;;;5.15;2.20;;;23.70;99.30;;;22.82;62.04;100780.50;5109803;28;20079;-50
2021/06/10 06:38:48;;;;;;;4.20;2.08;;;23.60;99.50;;;22.78;62.80;100777.47;5110257;28;20511;-57
2021/06/10 06:41:14;;;;;;;3.15;1.70;;;23.60;99.80;;;22.76;62.39;100776.84;5091552;28;20131;-62
2021/06/10 06:43:41;;;;;;;2.45;2.25;;;23.60;99.90;;;22.88;61.38;100770.84;5109678;28;20044;-59
2021/06/10 06:46:09;;;;;;;2.15;1.95;;;23.60;99.40;;;23.07;60.78;100776.00;5091217;28;20532;-57
2021/06/10 06:48:35;;;;;;;3.80;2.38;;;23.70;99.00;;;23.13;61.17;100769.81;5125211;27;20126;-56
2021/06/10 06:51:02;;;;;;;5.72;2.50;;;23.80;99.30;;;23.21;62.29;100773.19;5109958;28;20075;-58
2021/06/10 06:53:30;;;;;;;2.67;1.92;;;23.90;99.90;;;23.19;61.97;100778.72;5109758;28;20449;-57
2021/06/10 06:56:00;;;;;;;7.72;1.92;;;24.00;99.60;;;23.41;61.47;100774.63;5074252;28;20124;-55
2021/06/10 06:58:26;;;;;;;3.60;1.77;;;24.20;99.30;;;23.57;60.15;100777.75;5109456;28;20046;-59
2021/06/10 07:00:54;;;;;;;2.80;1.40;;;24.60;97.50;;;23.57;59.04;100783.06;5109707;28;20367;-61
2021/06/10 07:03:21;;;;;;;3.40;1.55;;;24.70;96.90;;;23.55;59.92;100779.81;5109502;28;20036;-54
2021/06/10 07:05:48;;;;;;;2.83;1.55;;;24.50;97.00;;;23.56;59.47;100784.94;5091357;28;20099;-54
2021/06/10 07:08:14;;;;;;;13.63;1.55;;;24.40;96.60;;;23.63;58.38;100790.16;5109315;28;20201;-59
2021/06/10 07:10:40;;;;;;;4.85;1.95;;;24.40;96.60;;;23.65;59.32;100794.19;5109831;28;20339;-62
2021/06/10 07:13:06;;;;;;;6.32;2.63;;;24.50;96.50;;;23.75;59.98;100796.34;5109141;28;20104;-62
2021/06/10 07:15:33;;;;;;;6.25;1.67;;;24.50;97.50;;;23.64;60.49;100797.09;5109360;28;20089;-55
2021/06/10 07:17:59;;;;;;;5.85;2.30;;;24.50;97.60;;;23.33;59.72;100795.34;5109544;28;20039;-52
2021/06/10 07:20:25;;;;;;;5.55;1.80;;;24.30;96.90;;;23.63;58.82;100800.81;5109545;28;20035;-56
2021/06/10 07:22:51;;;;;;;8.93;1.92;;;24.20;96.70;;;23.89;57.30;100808.47;5109249;28;20157;-55
2021/06/10 07:25:18;;;;;;;8.00;2.03;;;24.30;96.40;;;23.79;57.21;100805.50;5107366;28;20079;-57
2021/06/10 07:27:45;;;;;;;12.38;2.30;;;24.40;95.80;;;23.65;57.05;100806.69;5108755;28;20059;-60
2021/06/10 07:30:12;;;;;;;2.97;1.65;;;24.30;95.20;;;23.24;59.19;100802.00;5109166;28;20031;-50
2021/06/10 07:32:38;;;;;;;4.35;1.63;;;24.10;96.00;;;22.97;59.94;100807.56;5109121;28;20055;-58
2021/06/10 07:35:05;;;;;;;2.92;1.27;;;23.80;96.60;;;23.16;60.19;100803.91;5109480;28;20035;-59
2021/06/10 07:37:31;;;;;;;4.85;1.23;;;23.80;97.20;;;23.38;58.75;100811.47;5109135;28;20032;-54
2021/06/10 07:39:57;;;;;;;3.38;1.60;;;23.90;96.80;;;23.25;59.01;100801.78;5108967;28;20111;-55
2021/06/10 07:42:23;;;;;;;1.85;1.38;;;23.80;96.50;;;23.43;57.81;100804.47;5108273;28;20047;-56
2021/06/10 07:44:49;;;;;;;3.72;1.13;;;24.00;96.10;;;23.24;57.89;100807.31;5108662;28;20028;-56
2021/06/10 07:47:15;;;;;;;3.15;1.58;;;24.00;95.40;;;23.41;57.41;100803.88;5108659;28;20036;-55
2021/06/10 07:49:42;;;;;;;4.25;1.90;;;24.10;95.50;;;23.60;58.07;100807.38;5108130;28;20089;-56
2021/06/10 07:52:08;;;;;;;5.35;1.73;;;24.20;95.90;;;23.79;57.83;100810.84;5090131;28;20065;-56
2021/06/10 07:54:34;;;;;;;7.55;1.75;;;24.40;95.70;;;24.11;57.23;100811.44;5123288;27;20067;-54
2021/06/10 07:57:00;;;;;;;8.32;1.77;;;24.70;95.60;;;24.24;56.98;100805.13;5090228;28;20032;-56
2021/06/10 07:59:26;;;;;;;8.25;1.58;;;24.90;95.20;;;24.35;57.30;100805.22;5109079;28;20440;-58
2021/06/10 08:01:54;;;;;;;4.85;1.58;;;25.00;95.20;;;24.27;57.36;100812.69;5108563;28;20041;-57
2021/06/10 08:04:20;;;;;;;3.80;1.65;;;25.10;94.90;;;24.19;56.42;100811.13;5108596;28;20040;-54
2021/06/10 08:06:46;;;;;;;3.28;1.33;;;25.00;93.80;;;24.15;57.02;100816.09;5108541;28;20040;-57
2021/06/10 08:09:13;;;;;;;5.80;1.58;;;24.90;94.50;;;23.72;58.24;100821.53;5108601;28;20497;-57
2021/06/10 08:11:44;;;;;;;3.70;1.65;;;24.70;95.00;;;23.76;56.64;100808.63;5108297;28;20428;-56
2021/06/10 08:14:11;;;;;;;2.25;1.55;;;24.50;94.40;;;24.26;55.96;100811.06;5108426;28;20027;-57
2021/06/10 08:16:37;;;;;;;5.07;2.50;;;24.70;93.80;;;24.66;54.50;100813.97;5108358;28;20047;-58
2021/06/10 08:19:04;;;;;;;3.38;1.90;;;25.10;93.10;;;24.96;53.94;100812.09;5089751;28;20036;-57
2021/06/10 08:21:30;;;;;;;5.15;1.50;;;25.30;93.00;;;25.24;52.33;100813.22;5108316;28;20161;-58
2021/06/10 08:23:57;;;;;;;8.77;1.25;;;25.50;92.00;;;25.22;52.67;100815.31;5107971;28;20042;-58
2021/06/10 08:26:23;;;;;;;1.75;1.65;;;25.70;91.20;;;25.36;51.97;100811.38;5111390;28;20042;-58
2021/06/10 08:28:49;;;;;;;6.60;1.80;;;25.80;90.70;;;25.51;51.90;100814.38;5112307;28;20035;-56
2021/06/10 08:31:18;;;;;;;2.85;1.60;;;25.90;90.60;;;25.44;51.68;100809.16;5112237;28;20073;-58
2021/06/10 08:33:44;;;;;;;8.25;2.08;;;26.10;90.00;;;25.64;51.05;100805.31;5112317;28;20060;-56
2021/06/10 08:36:11;;;;;;;2.78;1.52;;;26.30;88.40;;;25.62;51.53;100805.53;5112056;28;20574;-57
2021/06/10 08:38:37;;;;;;;6.20;1.83;;;26.30;88.00;;;25.81;50.73;100811.53;5110720;28;20039;-57
2021/06/10 08:41:04;;;;;;;2.65;1.30;;;26.50;86.80;;;26.35;48.85;100810.22;5112420;28;20031;-58
2021/06/10 08:43:30;;;;;;;3.95;1.30;;;26.70;85.00;;;26.44;48.30;100808.75;5111913;28;20077;-56
2021/06/10 08:46:06;;;;;;;2.88;1.40;;;26.90;83.50;;;26.06;47.97;100811.22;5111998;28;20048;-42
2021/06/10 08:48:35;;;;;;;7.75;2.00;;;26.60;81.30;;;25.91;48.89;100809.09;5111961;28;20055;-41
2021/06/10 08:51:02;;;;;;;5.68;1.92;;;26.60;82.50;;;25.88;49.15;100814.91;5111827;28;20498;-39
2021/06/10 08:53:29;;;;;;;2.28;1.00;;;26.60;82.20;;;26.10;48.57;100812.38;5081789;22;20187;-37
2021/06/10 08:55:56;;;;;;;2.78;1.35;;;26.60;81.60;;;26.01;49.70;100824.47;5027179;28;20108;-43
2021/06/10 08:58:24;;;;;;;1.77;1.42;;;26.70;82.50;;;25.76;49.29;100817.59;5009881;28;20505;-40
2021/06/10 09:00:51;;;;;;;2.67;1.80;;;26.60;81.60;;;25.63;48.88;100815.16;5011342;28;20120;-41
2021/06/10 09:03:32;;;;;;;3.42;1.65;;;26.50;79.90;;;25.81;48.46;100810.75;5026699;28;20037;-51
2021/06/10 09:06:16;;;;;;;2.33;1.38;;;26.50;79.50;;;25.75;48.85;100815.97;4995122;28;20433;-38
2021/06/10 09:08:45;;;;;;;4.70;1.50;;;26.60;79.30;;;25.58;49.01;100822.22;5013923;28;20037;-59
2021/06/10 09:11:23;;;;;;;6.60;1.42;;;26.40;79.60;;;25.58;49.26;100819.56;5038322;28;20047;-57
2021/06/10 09:13:56;;;;;;;5.50;1.15;;;26.40;79.50;;;25.52;49.06;100823.19;5032837;28;20033;-53
2021/06/10 09:16:27;;;;;;;3.40;1.75;;;26.30;79.40;;;25.39;49.15;100821.56;5032866;28;20416;-57
2021/06/10 09:19:19;;;;;;;3.33;1.48;;;26.30;79.10;;;25.44;47.95;100824.34;5032791;28;20032;-53
2021/06/10 09:21:57;;;;;;;2.70;1.05;;;26.30;77.50;;;25.86;48.99;100830.34;5042710;28;20045;-58
2021/06/10 09:24:33;;;;;;;4.22;1.65;;;26.50;78.50;;;26.27;47.49;100831.91;5044822;28;20034;-56
2021/06/10 09:27:08;;;;;;;1.95;1.30;;;26.70;78.60;;;26.15;47.91;100833.81;5015903;28;20041;-59
2021/06/10 09:29:44;;;;;;;3.45;1.20;;;26.70;78.30;;;26.11;47.94;100830.81;5030569;28;20115;-56
2021/06/10 09:32:17;;;;;;;2.72;1.05;;;26.70;78.10;;;26.11;47.87;100830.81;5030894;28;20118;-54
2021/06/10 09:35:10;;;;;;;1.92;1.30;;;26.90;76.60;;;26.59;46.41;100831.44;5030831;28;20416;-55
2021/06/10 09:37:40;;;;;;;3.92;1.35;;;27.20;75.60;;;27.15;46.22;100829.69;5028349;28;20133;-57
2021/06/10 09:40:09;;;;;;;1.60;1.48;;;27.70;75.50;;;27.55;46.10;100827.56;5012615;28;20042;-57
2021/06/10 09:42:38;;;;;;;3.17;1.38;;;28.20;75.60;;;27.54;47.39;100823.28;5030553;28;20369;-54
2021/06/10 09:45:10;;;;;;;3.35;1.70;;;28.40;76.60;;;27.68;46.25;100832.59;5030231;28;20045;-58
2021/06/10 09:47:45;;;;;;;2.10;1.45;;;28.30;75.50;;;27.87;45.72;100825.06;5029028;28;20040;-54
2021/06/10 09:50:30;;;;;;;1.60;1.40;;;28.60;73.50;;;28.10;44.89;100821.28;5012325;28;20037;-56
2021/06/10 09:53:08;;;;;;;;;;;28.90;72.70;;;28.28;43.83;100823.66;5028969;28;20103;-57
2021/06/10 09:55:46;;;;;;;3.65;1.38;;;29.00;70.60;;;28.40;44.18;100815.44;5030822;28;19984;-57
2021/06/10 09:58:14;;;;;;;2.00;1.40;;;29.20;71.00;;;28.32;43.78;100811.38;5032040;28;20132;-54
2021/06/10 10:00:49;;;;;;;1.63;1.00;;;29.20;69.60;;;29.70;39.79;100805.91;5050104;28;20136;-54
2021/06/10 10:03:23;;;;;;;1.60;1.42;;;30.00;66.80;;;30.16;39.06;100810.63;5050306;28;20181;-50
2021/06/10 10:05:51;;;;;;;3.22;1.40;;;30.70;65.20;;;28.97;41.48;100809.50;5031681;28;20048;-56
2021/06/10 10:08:18;;;;;;;2.08;1.00;;;30.20;65.20;;;28.79;42.66;100813.38;5049819;28;20439;-58
2021/06/10 10:10:44;;;;;;;1.88;1.33;;;29.80;66.50;;;29.21;42.12;100809.94;5050195;28;20114;-56
2021/06/10 10:13:14;;;;;;;4.60;1.40;;;29.70;67.10;;;29.90;40.98;100801.66;5050163;28;20121;-57
2021/06/10 10:15:41;;;;;;;2.88;1.38;;;30.20;66.50;;;29.87;40.21;100800.28;5015803;28;20087;-56
2021/06/10 10:18:07;;;;;;;1.83;1.17;;;30.50;64.50;;;29.92;40.29;100804.88;5049950;28;20033;-58
2021/06/10 10:20:33;;;;;;;1.63;1.00;;;30.50;65.00;;;30.41;39.60;100799.88;5049487;28;20040;-58